createdAt,value
2018-09-29T00:00:34.212Z,0
2018-09-29T00:01:33.994Z,0
2018-09-29T00:02:34.783Z,0
2018-09-29T00:03:36.293Z,0
2018-09-29T00:04:37.361Z,0
2018-09-29T00:05:37.865Z,0
2018-09-29T00:06:39.387Z,0
2018-09-29T00:07:40.168Z,0
2018-09-29T00:08:40.672Z,0
2018-09-29T00:09:41.462Z,0
2018-09-29T00:10:41.691Z,0
2018-09-29T00:11:43.757Z,0
2018-09-29T00:12:43.541Z,0
2018-09-29T00:13:44.601Z,0
2018-09-29T00:14:45.692Z,0
2018-09-29T00:15:46.197Z,0
2018-09-29T00:16:47.985Z,0
2018-09-29T00:17:48.492Z,0
2018-09-29T00:18:49.270Z,0
2018-09-29T00:19:50.329Z,0
2018-09-29T00:20:50.665Z,0
2018-09-29T00:21:51.451Z,0
2018-09-29T00:22:51.964Z,0
2018-09-29T00:23:52.471Z,0
2018-09-29T00:24:52.978Z,0
2018-09-29T00:25:55.043Z,0
2018-09-29T00:26:55.447Z,0
2018-09-29T00:27:57.228Z,0
2018-09-29T00:28:58.293Z,0
2018-09-29T00:29:58.633Z,0
2018-09-29T00:30:58.700Z,0
2018-09-29T00:31:59.213Z,0
2018-09-29T00:33:00.580Z,0
2018-09-29T00:34:00.815Z,0
2018-09-29T00:35:02.435Z,0
2018-09-29T00:36:03.506Z,0
2018-09-29T00:37:05.602Z,0
2018-09-29T00:38:06.219Z,0
2018-09-29T00:39:07.279Z,0
2018-09-29T00:40:07.799Z,0
2018-09-29T00:41:09.030Z,0
2018-09-29T00:42:10.376Z,0
2018-09-29T00:43:11.715Z,0
2018-09-29T00:44:11.777Z,0
2018-09-29T00:45:13.395Z,0
2018-09-29T00:46:12.904Z,0
2018-09-29T00:47:13.866Z,0
2018-09-29T00:48:15.260Z,0
2018-09-29T00:49:16.051Z,0
2018-09-29T00:50:17.395Z,0
2018-09-29T00:51:18.456Z,0
2018-09-29T00:52:19.248Z,0
2018-09-29T00:53:20.590Z,0
2018-09-29T00:54:21.213Z,0
2018-09-29T00:55:22.277Z,0
2018-09-29T00:56:23.902Z,0
2018-09-29T00:57:24.158Z,0
2018-09-29T00:58:24.942Z,0
2018-09-29T00:59:25.174Z,0
2018-09-29T01:00:26.243Z,0
2018-09-29T01:01:27.030Z,0
2018-09-29T01:02:28.373Z,0
2018-09-29T01:03:28.603Z,0
2018-09-29T01:04:29.664Z,0
2018-09-29T01:05:31.007Z,0
2018-09-29T01:06:32.068Z,0
2018-09-29T01:07:32.027Z,0
2018-09-29T01:08:33.090Z,0
2018-09-29T01:09:33.596Z,0
2018-09-29T01:10:34.664Z,0
2018-09-29T01:11:35.728Z,0
2018-09-29T01:12:36.234Z,0
2018-09-29T01:13:37.295Z,0
2018-09-29T01:14:37.809Z,0
2018-09-29T01:15:39.869Z,0
2018-09-29T01:16:40.654Z,0
2018-09-29T01:17:41.888Z,0
2018-09-29T01:18:41.950Z,0
2018-09-29T01:19:43.294Z,0
2018-09-29T01:20:43.356Z,0
2018-09-29T01:21:43.872Z,0
2018-09-29T01:22:44.663Z,0
2018-09-29T01:23:46.000Z,0
2018-09-29T01:24:47.355Z,0
2018-09-29T01:25:47.417Z,0
2018-09-29T01:26:48.480Z,0
2018-09-29T01:27:49.019Z,0
2018-09-29T01:28:49.804Z,0
2018-09-29T01:29:50.591Z,0
2018-09-29T01:30:51.933Z,0
2018-09-29T01:31:53.282Z,0
2018-09-29T01:32:53.071Z,0
2018-09-29T01:33:53.860Z,0
2018-09-29T01:34:54.656Z,0
2018-09-29T01:35:55.998Z,0
2018-09-29T01:36:57.059Z,0
2018-09-29T01:37:57.581Z,0
2018-09-29T01:38:58.368Z,0
2018-09-29T01:39:59.430Z,0
2018-09-29T01:40:59.663Z,0
2018-09-29T01:42:00.173Z,0
2018-09-29T01:43:00.965Z,0
2018-09-29T01:44:01.757Z,0
2018-09-29T01:45:03.094Z,0
2018-09-29T01:46:03.878Z,0
2018-09-29T01:47:04.670Z,0
2018-09-29T01:48:05.631Z,0
2018-09-29T01:49:07.529Z,0
2018-09-29T01:50:08.871Z,0
2018-09-29T01:51:09.102Z,0
2018-09-29T01:52:10.891Z,0
2018-09-29T01:53:11.405Z,0
2018-09-29T01:54:11.915Z,0
2018-09-29T01:55:12.976Z,0
2018-09-29T01:56:13.486Z,0
2018-09-29T01:57:14.556Z,0
2018-09-29T01:58:14.964Z,0
2018-09-29T01:59:15.752Z,0
2018-09-29T02:00:16.996Z,0
2018-09-29T02:01:17.778Z,0
2018-09-29T02:02:18.841Z,0
2018-09-29T02:03:20.462Z,0
2018-09-29T02:04:20.695Z,0
2018-09-29T02:05:22.760Z,0
2018-09-29T02:06:22.272Z,0
2018-09-29T02:07:23.346Z,0
2018-09-29T02:08:24.203Z,0
2018-09-29T02:09:24.992Z,0
2018-09-29T02:10:25.498Z,0
2018-09-29T02:11:26.558Z,0
2018-09-29T02:12:28.342Z,0
2018-09-29T02:13:29.126Z,0
2018-09-29T02:14:29.911Z,0
2018-09-29T02:15:30.420Z,0
2018-09-29T02:16:31.207Z,0
2018-09-29T02:17:32.271Z,0
2018-09-29T02:18:33.235Z,0
2018-09-29T02:19:33.746Z,0
2018-09-29T02:20:34.532Z,0
2018-09-29T02:21:35.043Z,0
2018-09-29T02:22:35.551Z,0
2018-09-29T02:23:36.335Z,0
2018-09-29T02:24:37.672Z,0
2018-09-29T02:25:38.456Z,0
2018-09-29T02:26:38.522Z,0
2018-09-29T02:27:40.306Z,0
2018-09-29T02:28:42.406Z,0
2018-09-29T02:29:42.673Z,0
2018-09-29T02:30:43.569Z,0
2018-09-29T02:31:45.183Z,0
2018-09-29T02:32:46.080Z,0
2018-09-29T02:33:46.866Z,0
2018-09-29T02:34:47.927Z,0
2018-09-29T02:35:48.544Z,0
2018-09-29T02:36:48.331Z,0
2018-09-29T02:37:49.670Z,0
2018-09-29T02:38:50.747Z,0
2018-09-29T02:39:51.090Z,0
2018-09-29T02:40:51.710Z,0
2018-09-29T02:41:52.351Z,0
2018-09-29T02:42:52.413Z,0
2018-09-29T02:43:54.036Z,0
2018-09-29T02:44:53.547Z,0
2018-09-29T02:45:54.608Z,0
2018-09-29T02:46:55.400Z,0
2018-09-29T02:47:56.022Z,0
2018-09-29T02:48:57.560Z,0
2018-09-29T02:49:58.628Z,0
2018-09-29T02:50:59.532Z,0
2018-09-29T02:51:59.319Z,0
2018-09-29T02:52:59.941Z,0
2018-09-29T02:54:01.010Z,0
2018-09-29T02:55:02.666Z,0
2018-09-29T02:56:02.455Z,0
2018-09-29T02:57:02.960Z,0
2018-09-29T02:58:04.301Z,0
2018-09-29T02:59:05.651Z,0
2018-09-29T03:00:05.161Z,0
2018-09-29T03:01:06.500Z,0
2018-09-29T03:02:07.007Z,0
2018-09-29T03:03:08.348Z,0
2018-09-29T03:04:08.695Z,0
2018-09-29T03:05:10.322Z,0
2018-09-29T03:06:10.827Z,0
2018-09-29T03:07:13.590Z,0
2018-09-29T03:08:13.334Z,0
2018-09-29T03:09:13.984Z,0
2018-09-29T03:10:15.602Z,0
2018-09-29T03:11:15.832Z,0
2018-09-29T03:12:17.628Z,0
2018-09-29T03:13:19.247Z,0
2018-09-29T03:14:19.033Z,0
2018-09-29T03:15:20.940Z,0
2018-09-29T03:16:20.721Z,0
2018-09-29T03:17:21.625Z,0
2018-09-29T03:18:21.683Z,0
2018-09-29T03:19:23.298Z,0
2018-09-29T03:20:23.145Z,0
2018-09-29T03:21:24.205Z,0
2018-09-29T03:22:25.838Z,0
2018-09-29T03:23:26.507Z,0
2018-09-29T03:24:27.860Z,0
2018-09-29T03:25:27.921Z,0
2018-09-29T03:26:28.984Z,0
2018-09-29T03:27:29.775Z,0
2018-09-29T03:28:30.564Z,0
2018-09-29T03:29:31.373Z,0
2018-09-29T03:30:32.714Z,0
2018-09-29T03:31:32.793Z,0
2018-09-29T03:32:33.813Z,0
2018-09-29T03:33:34.152Z,0
2018-09-29T03:34:35.492Z,0
2018-09-29T03:35:37.115Z,0
2018-09-29T03:36:37.196Z,0
2018-09-29T03:37:38.563Z,0
2018-09-29T03:38:38.619Z,0
2018-09-29T03:39:39.408Z,0
2018-09-29T03:40:41.196Z,0
2018-09-29T03:41:41.553Z,0
2018-09-29T03:42:42.339Z,0
2018-09-29T03:43:43.415Z,0
2018-09-29T03:44:44.315Z,0
2018-09-29T03:45:44.933Z,0
2018-09-29T03:46:45.270Z,0
2018-09-29T03:47:46.053Z,0
2018-09-29T03:48:46.840Z,0
2018-09-29T03:49:48.502Z,0
2018-09-29T03:50:48.863Z,0
2018-09-29T03:51:49.648Z,0
2018-09-29T03:52:50.720Z,0
2018-09-29T03:53:51.923Z,0
2018-09-29T03:54:52.264Z,0
2018-09-29T03:55:52.600Z,0
2018-09-29T03:56:53.396Z,0
2018-09-29T03:57:54.182Z,0
2018-09-29T03:58:55.801Z,0
2018-09-29T03:59:55.888Z,0
2018-09-29T04:00:57.522Z,0
2018-09-29T04:01:58.589Z,0
2018-09-29T04:02:59.210Z,0
2018-09-29T04:03:59.720Z,0
2018-09-29T04:05:01.503Z,0
2018-09-29T04:06:02.878Z,0
2018-09-29T04:07:03.666Z,0
2018-09-29T04:08:05.280Z,0
2018-09-29T04:09:05.950Z,0
2018-09-29T04:10:06.191Z,0
2018-09-29T04:11:07.813Z,0
2018-09-29T04:12:09.154Z,0
2018-09-29T04:13:09.232Z,0
2018-09-29T04:14:10.290Z,0
2018-09-29T04:15:11.961Z,0
2018-09-29T04:16:12.023Z,0
2018-09-29T04:17:13.086Z,0
2018-09-29T04:18:14.987Z,0
2018-09-29T04:19:14.794Z,0
2018-09-29T04:20:16.311Z,0
2018-09-29T04:21:16.819Z,0
2018-09-29T04:22:18.447Z,0
2018-09-29T04:23:18.532Z,0
2018-09-29T04:24:18.597Z,0
2018-09-29T04:25:19.216Z,0
2018-09-29T04:26:20.116Z,0
2018-09-29T04:27:20.461Z,0
2018-09-29T04:28:21.802Z,0
2018-09-29T04:29:22.867Z,0
2018-09-29T04:30:23.957Z,0
2018-09-29T04:31:24.301Z,0
2018-09-29T04:32:23.814Z,0
2018-09-29T04:33:24.877Z,0
2018-09-29T04:34:25.659Z,0
2018-09-29T04:35:27.281Z,0
2018-09-29T04:36:28.069Z,0
2018-09-29T04:37:28.855Z,0
2018-09-29T04:38:29.642Z,0
2018-09-29T04:39:30.699Z,0
2018-09-29T04:40:32.792Z,0
2018-09-29T04:41:32.862Z,0
2018-09-29T04:42:33.361Z,0
2018-09-29T04:43:35.148Z,0
2018-09-29T04:44:36.211Z,0
2018-09-29T04:45:36.993Z,0
2018-09-29T04:46:37.781Z,0
2018-09-29T04:47:38.564Z,0
2018-09-29T04:48:38.792Z,0
2018-09-29T04:49:40.138Z,0
2018-09-29T04:50:40.369Z,0
2018-09-29T04:51:41.875Z,4
2018-09-29T04:52:42.661Z,4
2018-09-29T04:53:42.890Z,0
2018-09-29T04:54:44.233Z,0
2018-09-29T04:55:44.459Z,4
2018-09-29T04:56:44.971Z,0
2018-09-29T04:57:46.755Z,4
2018-09-29T04:58:47.542Z,0
2018-09-29T04:59:48.049Z,4
2018-09-29T05:00:49.281Z,4
2018-09-29T05:01:50.897Z,8
2018-09-29T05:02:50.981Z,8
2018-09-29T05:03:50.765Z,8
2018-09-29T05:04:52.105Z,8
2018-09-29T05:05:52.168Z,8
2018-09-29T05:06:53.232Z,12
2018-09-29T05:07:54.015Z,12
2018-09-29T05:08:54.525Z,16
2018-09-29T05:09:56.144Z,20
2018-09-29T05:10:57.102Z,16
2018-09-29T05:11:57.891Z,20
2018-09-29T05:13:10.099Z,20
2018-09-29T05:14:11.333Z,28
2018-09-29T05:15:12.117Z,28
2018-09-29T05:16:12.900Z,32
2018-09-29T05:17:14.249Z,32
2018-09-29T05:18:13.755Z,32
2018-09-29T05:19:14.265Z,32
2018-09-29T05:20:15.057Z,32
2018-09-29T05:21:16.404Z,32
2018-09-29T05:22:17.188Z,32
2018-09-29T05:23:19.713Z,36
2018-09-29T05:24:19.870Z,40
2018-09-29T05:25:21.216Z,44
2018-09-29T05:26:21.833Z,48
2018-09-29T05:27:21.617Z,52
2018-09-29T05:28:22.407Z,56
2018-09-29T05:29:22.914Z,60
2018-09-29T05:30:23.709Z,60
2018-09-29T05:31:24.502Z,68
2018-09-29T05:32:25.568Z,72
2018-09-29T05:33:25.634Z,72
2018-09-29T05:34:26.592Z,80
2018-09-29T05:35:27.657Z,88
2018-09-29T05:36:28.442Z,92
2018-09-29T05:37:28.676Z,100
2018-09-29T05:38:31.373Z,108
2018-09-29T05:39:30.375Z,116
2018-09-29T05:40:31.996Z,120
2018-09-29T05:41:32.228Z,128
2018-09-29T05:42:34.017Z,128
2018-09-29T05:43:34.812Z,136
2018-09-29T05:44:36.329Z,136
2018-09-29T05:45:36.839Z,132
2018-09-29T05:46:37.905Z,128
2018-09-29T05:47:38.136Z,128
2018-09-29T05:48:39.648Z,128
2018-09-29T05:49:40.430Z,128
2018-09-29T05:50:40.940Z,128
2018-09-29T05:51:41.452Z,128
2018-09-29T05:52:42.682Z,132
2018-09-29T05:53:45.529Z,140
2018-09-29T05:54:45.690Z,144
2018-09-29T05:55:45.759Z,148
2018-09-29T05:56:46.267Z,156
2018-09-29T05:57:48.057Z,160
2018-09-29T05:58:48.847Z,168
2018-09-29T05:59:49.929Z,172
2018-09-29T06:00:51.268Z,180
2018-09-29T06:01:51.057Z,180
2018-09-29T06:02:51.568Z,176
2018-09-29T06:03:52.630Z,176
2018-09-29T06:04:53.596Z,176
2018-09-29T06:05:55.146Z,180
2018-09-29T06:06:54.961Z,188
2018-09-29T06:07:55.805Z,196
2018-09-29T06:08:56.877Z,216
2018-09-29T06:09:57.112Z,228
2018-09-29T06:10:58.825Z,236
2018-09-29T06:12:00.453Z,244
2018-09-29T06:13:01.276Z,248
2018-09-29T06:14:00.371Z,256
2018-09-29T06:15:01.614Z,252
2018-09-29T06:16:02.398Z,252
2018-09-29T06:17:03.193Z,260
2018-09-29T06:18:03.552Z,260
2018-09-29T06:19:04.339Z,264
2018-09-29T06:20:04.572Z,272
2018-09-29T06:21:06.353Z,292
2018-09-29T06:22:06.425Z,308
2018-09-29T06:23:07.769Z,324
2018-09-29T06:24:08.286Z,328
2018-09-29T06:25:09.520Z,328
2018-09-29T06:26:10.307Z,324
2018-09-29T06:27:11.108Z,324
2018-09-29T06:28:11.902Z,324
2018-09-29T06:29:12.680Z,324
2018-09-29T06:30:14.301Z,316
2018-09-29T06:31:14.540Z,292
2018-09-29T06:32:15.880Z,300
2018-09-29T06:33:16.950Z,332
2018-09-29T06:34:18.318Z,336
2018-09-29T06:35:18.772Z,332
2018-09-29T06:36:20.115Z,308
2018-09-29T06:37:21.297Z,352
2018-09-29T06:38:22.263Z,356
2018-09-29T06:39:23.175Z,304
2018-09-29T06:40:22.963Z,276
2018-09-29T06:41:23.797Z,356
2018-09-29T06:42:24.162Z,360
2018-09-29T06:43:24.963Z,324
2018-09-29T06:44:26.037Z,328
2018-09-29T06:45:27.272Z,392
2018-09-29T06:46:28.894Z,440
2018-09-29T06:47:28.688Z,360
2018-09-29T06:48:29.476Z,336
2018-09-29T06:49:30.542Z,408
2018-09-29T06:50:31.169Z,432
2018-09-29T06:51:31.798Z,384
2018-09-29T06:52:32.586Z,316
2018-09-29T06:53:33.094Z,324
2018-09-29T06:54:34.737Z,340
2018-09-29T06:55:35.145Z,372
2018-09-29T06:56:36.488Z,468
2018-09-29T06:57:36.830Z,508
2018-09-29T06:58:37.172Z,472
2018-09-29T06:59:37.239Z,472
2018-09-29T07:00:38.157Z,464
2018-09-29T07:01:39.499Z,464
2018-09-29T07:02:40.012Z,492
2018-09-29T07:03:40.795Z,512
2018-09-29T07:04:42.866Z,484
2018-09-29T07:05:43.687Z,524
2018-09-29T07:06:44.479Z,544
2018-09-29T07:07:45.269Z,556
2018-09-29T07:08:46.055Z,516
2018-09-29T07:09:46.287Z,508
2018-09-29T07:10:47.352Z,500
2018-09-29T07:11:47.579Z,436
2018-09-29T07:12:49.709Z,584
2018-09-29T07:13:50.425Z,616
2018-09-29T07:14:50.775Z,628
2018-09-29T07:15:51.015Z,640
2018-09-29T07:16:51.364Z,656
2018-09-29T07:17:52.426Z,660
2018-09-29T07:18:52.938Z,612
2018-09-29T07:19:54.449Z,652
2018-09-29T07:20:55.236Z,608
2018-09-29T07:21:56.548Z,656
2018-09-29T07:22:56.781Z,704
2018-09-29T07:23:57.848Z,752
2018-09-29T07:24:58.913Z,772
2018-09-29T07:25:58.768Z,828
2018-09-29T07:26:59.854Z,872
2018-09-29T07:28:00.083Z,924
2018-09-29T07:29:00.870Z,984
2018-09-29T07:30:01.669Z,928
2018-09-29T07:31:03.027Z,1004
2018-09-29T07:32:04.377Z,1016
2018-09-29T07:33:04.894Z,996
2018-09-29T07:34:05.959Z,1008
2018-09-29T07:35:06.750Z,1028
2018-09-29T07:36:07.156Z,1052
2018-09-29T07:37:07.677Z,1012
2018-09-29T07:38:08.184Z,1104
2018-09-29T07:39:08.699Z,1116
2018-09-29T07:40:09.764Z,1056
2018-09-29T07:41:11.108Z,1048
2018-09-29T07:42:12.730Z,1116
2018-09-29T07:43:12.811Z,1152
2018-09-29T07:44:13.049Z,1192
2018-09-29T07:45:13.835Z,1184
2018-09-29T07:46:14.653Z,1184
2018-09-29T07:47:15.281Z,1240
2018-09-29T07:48:16.353Z,1268
2018-09-29T07:49:18.012Z,1280
2018-09-29T07:50:18.248Z,1244
2018-09-29T07:51:18.892Z,1240
2018-09-29T07:52:19.406Z,1312
2018-09-29T07:53:20.195Z,1312
2018-09-29T07:54:21.542Z,1308
2018-09-29T07:55:21.333Z,1292
2018-09-29T07:56:21.980Z,1412
2018-09-29T07:57:22.767Z,1536
2018-09-29T07:58:23.276Z,1692
2018-09-29T07:59:24.368Z,1808
2018-09-29T08:00:25.141Z,1892
2018-09-29T08:01:26.615Z,1892
2018-09-29T08:02:27.180Z,1856
2018-09-29T08:03:27.529Z,1820
2018-09-29T08:04:28.596Z,1840
2018-09-29T08:05:29.833Z,1804
2018-09-29T08:06:33.225Z,1704
2018-09-29T08:07:32.789Z,1688
2018-09-29T08:08:33.023Z,1668
2018-09-29T08:09:34.091Z,1536
2018-09-29T08:10:35.163Z,1464
2018-09-29T08:11:36.228Z,1432
2018-09-29T08:12:37.299Z,1448
2018-09-29T08:13:38.087Z,1464
2018-09-29T08:14:38.878Z,1480
2018-09-29T08:15:39.948Z,1500
2018-09-29T08:16:40.639Z,1504
2018-09-29T08:17:41.705Z,1456
2018-09-29T08:18:43.052Z,1388
2018-09-29T08:19:43.565Z,1312
2018-09-29T08:20:44.081Z,1264
2018-09-29T08:21:44.591Z,1248
2018-09-29T08:22:45.104Z,1256
2018-09-29T08:23:46.447Z,1284
2018-09-29T08:24:47.514Z,1316
2018-09-29T08:25:48.306Z,1300
2018-09-29T08:26:49.443Z,1304
2018-09-29T08:27:49.793Z,1360
2018-09-29T08:28:51.138Z,1440
2018-09-29T08:29:50.929Z,1452
2018-09-29T08:30:51.998Z,1408
2018-09-29T08:31:53.066Z,1404
2018-09-29T08:32:53.582Z,1456
2018-09-29T08:33:55.654Z,1512
2018-09-29T08:34:55.723Z,1656
2018-09-29T08:35:56.789Z,1908
2018-09-29T08:36:57.752Z,2112
2018-09-29T08:37:58.599Z,2292
2018-09-29T08:38:59.662Z,2968
2018-09-29T08:40:00.731Z,3412
2018-09-29T08:41:00.808Z,3416
2018-09-29T08:42:01.601Z,3488
2018-09-29T08:43:02.676Z,3304
2018-09-29T08:44:03.179Z,2880
2018-09-29T08:45:04.253Z,2984
2018-09-29T08:46:04.608Z,3688
2018-09-29T08:47:06.411Z,3624
2018-09-29T08:48:06.754Z,3148
2018-09-29T08:49:07.544Z,2824
2018-09-29T08:50:08.334Z,2356
2018-09-29T08:51:09.403Z,2412
2018-09-29T08:52:09.914Z,2440
2018-09-29T08:53:11.961Z,2396
2018-09-29T08:54:12.888Z,2136
2018-09-29T08:55:13.677Z,2052
2018-09-29T08:56:14.190Z,2040
2018-09-29T08:57:15.175Z,2136
2018-09-29T08:58:15.690Z,2152
2018-09-29T08:59:16.757Z,2124
2018-09-29T09:00:18.269Z,2076
2018-09-29T09:01:19.060Z,2036
2018-09-29T09:02:19.876Z,1964
2018-09-29T09:03:20.388Z,1936
2018-09-29T09:04:21.455Z,1936
2018-09-29T09:05:22.245Z,1944
2018-09-29T09:06:23.036Z,1972
2018-09-29T09:07:24.282Z,2004
2018-09-29T09:08:25.076Z,2004
2018-09-29T09:09:27.354Z,1988
2018-09-29T09:10:27.249Z,1912
2018-09-29T09:11:28.605Z,1828
2018-09-29T09:12:28.675Z,1820
2018-09-29T09:13:29.789Z,1784
2018-09-29T09:14:30.865Z,1724
2018-09-29T09:15:31.929Z,1684
2018-09-29T09:16:32.720Z,1616
2018-09-29T09:17:33.971Z,1572
2018-09-29T09:18:35.086Z,1580
2018-09-29T09:19:35.878Z,1656
2018-09-29T09:20:36.393Z,1792
2018-09-29T09:21:37.463Z,1864
2018-09-29T09:22:38.812Z,1796
2018-09-29T09:23:39.950Z,1688
2018-09-29T09:24:40.952Z,1588
2018-09-29T09:25:42.302Z,1648
2018-09-29T09:26:43.097Z,1680
2018-09-29T09:27:44.770Z,1672
2018-09-29T09:28:44.283Z,1636
2018-09-29T09:29:47.639Z,1672
2018-09-29T09:30:47.120Z,1712
2018-09-29T09:31:48.469Z,1776
2018-09-29T09:32:48.261Z,1912
2018-09-29T09:33:49.331Z,1912
2018-09-29T09:34:49.402Z,1828
2018-09-29T09:35:49.913Z,1832
2018-09-29T09:36:51.707Z,1944
2018-09-29T09:37:52.947Z,2056
2018-09-29T09:38:53.462Z,1940
2018-09-29T09:39:54.252Z,1832
2018-09-29T09:40:55.602Z,2132
2018-09-29T09:41:55.676Z,2352
2018-09-29T09:42:56.741Z,2488
2018-09-29T09:43:57.537Z,2564
2018-09-29T09:44:58.329Z,2708
2018-09-29T09:45:59.404Z,2804
2018-09-29T09:47:01.035Z,2652
2018-09-29T09:48:01.852Z,2432
2018-09-29T09:49:02.643Z,2324
2018-09-29T09:50:03.990Z,2372
2018-09-29T09:51:04.780Z,2380
2018-09-29T09:52:05.292Z,2276
2018-09-29T09:53:06.084Z,2284
2018-09-29T09:54:07.712Z,2352
2018-09-29T09:55:07.785Z,2236
2018-09-29T09:56:10.171Z,2172
2018-09-29T09:57:09.420Z,2108
2018-09-29T09:58:10.960Z,2112
2018-09-29T09:59:11.592Z,2116
2018-09-29T10:00:12.662Z,2192
2018-09-29T10:01:13.290Z,2200
2018-09-29T10:02:13.082Z,2124
2018-09-29T10:03:13.879Z,2036
2018-09-29T10:04:14.951Z,1976
2018-09-29T10:05:15.741Z,1968
2018-09-29T10:06:16.111Z,2028
2018-09-29T10:07:18.043Z,2096
2018-09-29T10:08:18.865Z,1992
2018-09-29T10:09:19.664Z,1972
2018-09-29T10:10:21.015Z,2112
2018-09-29T10:11:21.807Z,3076
2018-09-29T10:12:22.324Z,2708
2018-09-29T10:13:23.677Z,3500
2018-09-29T10:14:23.479Z,2360
2018-09-29T10:15:24.268Z,2172
2018-09-29T10:16:25.500Z,2172
2018-09-29T10:17:28.222Z,2224
2018-09-29T10:18:28.795Z,2248
2018-09-29T10:19:28.866Z,2252
2018-09-29T10:20:30.102Z,2176
2018-09-29T10:21:31.208Z,2248
2018-09-29T10:22:31.833Z,2352
2018-09-29T10:23:31.903Z,2552
2018-09-29T10:24:33.018Z,2472
2018-09-29T10:25:33.805Z,2412
2018-09-29T10:26:34.875Z,2320
2018-09-29T10:27:36.012Z,2288
2018-09-29T10:28:36.312Z,2348
2018-09-29T10:29:37.106Z,2496
2018-09-29T10:30:39.615Z,2588
2018-09-29T10:31:39.138Z,2768
2018-09-29T10:32:40.226Z,2940
2018-09-29T10:33:40.741Z,3016
2018-09-29T10:34:41.262Z,2908
2018-09-29T10:35:42.059Z,3020
2018-09-29T10:36:43.683Z,3096
2018-09-29T10:37:43.751Z,3108
2018-09-29T10:38:44.556Z,3440
2018-09-29T10:39:44.795Z,3136
2018-09-29T10:40:45.864Z,3076
2018-09-29T10:41:46.376Z,3044
2018-09-29T10:42:48.277Z,3300
2018-09-29T10:43:48.351Z,3472
2018-09-29T10:44:48.416Z,3392
2018-09-29T10:45:49.650Z,4048
2018-09-29T10:46:50.444Z,3892
2018-09-29T10:47:50.962Z,2840
2018-09-29T10:48:52.059Z,2864
2018-09-29T10:49:52.129Z,2896
2018-09-29T10:50:53.477Z,2808
2018-09-29T10:51:54.268Z,2760
2018-09-29T10:52:56.743Z,2776
2018-09-29T10:53:56.557Z,2732
2018-09-29T10:54:57.634Z,2688
2018-09-29T10:55:58.707Z,2556
2018-09-29T10:56:59.221Z,2268
2018-09-29T10:57:59.457Z,2020
2018-09-29T10:59:01.412Z,1952
2018-09-29T11:00:02.095Z,1940
2018-09-29T11:01:03.220Z,2032
2018-09-29T11:02:04.027Z,2168
2018-09-29T11:03:04.777Z,2300
2018-09-29T11:04:04.871Z,2372
2018-09-29T11:05:06.900Z,2452
2018-09-29T11:06:06.609Z,2592
2018-09-29T11:07:07.718Z,2764
2018-09-29T11:08:08.512Z,2648
2018-09-29T11:09:10.030Z,2404
2018-09-29T11:10:10.820Z,2312
2018-09-29T11:11:11.891Z,2232
2018-09-29T11:12:12.129Z,2244
2018-09-29T11:13:13.921Z,2248
2018-09-29T11:14:14.975Z,2296
2018-09-29T11:15:16.104Z,2416
2018-09-29T11:16:16.172Z,2452
2018-09-29T11:17:16.419Z,2404
2018-09-29T11:18:17.214Z,2324
2018-09-29T11:19:18.290Z,2356
2018-09-29T11:20:19.450Z,2372
2018-09-29T11:21:20.313Z,2292
2018-09-29T11:22:21.065Z,2168
2018-09-29T11:23:21.701Z,2120
2018-09-29T11:24:22.789Z,2144
2018-09-29T11:25:23.581Z,2156
2018-09-29T11:26:24.374Z,2072
2018-09-29T11:27:25.442Z,1984
2018-09-29T11:28:26.675Z,1856
2018-09-29T11:29:27.922Z,1768
2018-09-29T11:30:28.440Z,1664
2018-09-29T11:31:28.707Z,1576
2018-09-29T11:32:30.051Z,1492
2018-09-29T11:33:31.405Z,1444
2018-09-29T11:34:32.474Z,1424
2018-09-29T11:35:33.270Z,1416
2018-09-29T11:36:34.063Z,1420
2018-09-29T11:37:35.610Z,1464
2018-09-29T11:38:36.400Z,1556
2018-09-29T11:39:36.727Z,1676
2018-09-29T11:40:38.196Z,1832
2018-09-29T11:41:38.658Z,2000
2018-09-29T11:42:40.561Z,2096
2018-09-29T11:43:41.636Z,2092
2018-09-29T11:44:42.190Z,2044
2018-09-29T11:45:42.874Z,1988
2018-09-29T11:46:43.943Z,1924
2018-09-29T11:47:44.178Z,1876
2018-09-29T11:48:44.974Z,1868
2018-09-29T11:49:46.219Z,1868
2018-09-29T11:50:47.015Z,1852
2018-09-29T11:51:47.807Z,1828
2018-09-29T11:52:48.597Z,1824
2018-09-29T11:53:49.110Z,1872
2018-09-29T11:54:50.347Z,1900
2018-09-29T11:55:52.415Z,1912
2018-09-29T11:56:53.030Z,1872
2018-09-29T11:57:54.101Z,1812
2018-09-29T11:58:55.520Z,1744
2018-09-29T11:59:55.590Z,1708
2018-09-29T12:00:56.103Z,1784
2018-09-29T12:01:58.237Z,1872
2018-09-29T12:02:58.049Z,1856
2018-09-29T12:03:58.840Z,1800
2018-09-29T12:05:00.191Z,1800
2018-09-29T12:06:01.550Z,1804
2018-09-29T12:07:02.565Z,1852
2018-09-29T12:08:03.656Z,1972
2018-09-29T12:09:02.943Z,2036
2018-09-29T12:10:04.741Z,2008
2018-09-29T12:11:06.089Z,1920
2018-09-29T12:12:05.884Z,1836
2018-09-29T12:13:06.404Z,1840
2018-09-29T12:14:08.041Z,1884
2018-09-29T12:15:07.827Z,1932
2018-09-29T12:16:08.625Z,1980
2018-09-29T12:17:09.416Z,2036
2018-09-29T12:18:10.489Z,2112
2018-09-29T12:19:11.005Z,2112
2018-09-29T12:20:12.531Z,2048
2018-09-29T12:21:14.410Z,1932
2018-09-29T12:22:14.608Z,1872
2018-09-29T12:23:15.318Z,1884
2018-09-29T12:24:16.386Z,1864
2018-09-29T12:25:17.463Z,1780
2018-09-29T12:26:18.250Z,1680
2018-09-29T12:27:19.047Z,1608
2018-09-29T12:27:31.320Z,1600
2018-09-29T12:28:32.584Z,1568
2018-09-29T12:29:33.579Z,1588
2018-09-29T12:30:33.530Z,1640
2018-09-29T12:31:34.876Z,1648
2018-09-29T12:32:34.950Z,1588
2018-09-29T12:33:35.482Z,1460
2018-09-29T12:34:36.578Z,1368
2018-09-29T12:35:36.093Z,1376
2018-09-29T12:36:36.887Z,1460
2018-09-29T12:37:38.516Z,1588
2018-09-29T12:38:38.600Z,1680
2018-09-29T12:39:39.394Z,1692
2018-09-29T12:40:42.489Z,1712
2018-09-29T12:41:42.511Z,1732
2018-09-29T12:42:44.700Z,1780
2018-09-29T12:43:44.635Z,1876
2018-09-29T12:44:45.803Z,1940
2018-09-29T12:45:46.303Z,1928
2018-09-29T12:46:46.835Z,1884
2018-09-29T12:47:47.342Z,1948
2018-09-29T12:48:48.144Z,2064
2018-09-29T12:49:48.954Z,2248
2018-09-29T12:50:49.741Z,2424
2018-09-29T12:51:51.437Z,2428
2018-09-29T12:52:51.679Z,2468
2018-09-29T12:53:53.027Z,2512
2018-09-29T12:54:54.136Z,2516
2018-09-29T12:55:54.225Z,2564
2018-09-29T12:56:55.014Z,2564
2018-09-29T12:57:55.533Z,2452
2018-09-29T12:58:56.547Z,2280
2018-09-29T12:59:57.186Z,2256
2018-09-29T13:00:58.533Z,2584
2018-09-29T13:01:59.880Z,3024
2018-09-29T13:03:00.392Z,3332
2018-09-29T13:04:01.739Z,3280
2018-09-29T13:05:02.984Z,3044
2018-09-29T13:06:03.132Z,2796
2018-09-29T13:07:03.928Z,2920
2018-09-29T13:08:05.552Z,3400
2018-09-29T13:09:06.095Z,3832
2018-09-29T13:10:06.608Z,3876
2018-09-29T13:11:08.820Z,2992
2018-09-29T13:12:09.009Z,2868
2018-09-29T13:13:10.084Z,2848
2018-09-29T13:14:11.426Z,3004
2018-09-29T13:15:12.220Z,3184
2018-09-29T13:16:13.568Z,3088
2018-09-29T13:17:13.923Z,2816
2018-09-29T13:18:14.718Z,2696
2018-09-29T13:19:15.987Z,2892
2018-09-29T13:20:17.343Z,3044
2018-09-29T13:21:17.413Z,3188
2018-09-29T13:22:17.650Z,3288
2018-09-29T13:23:18.444Z,3336
2018-09-29T13:24:19.515Z,3164
2018-09-29T13:25:20.030Z,3212
2018-09-29T13:26:20.825Z,3284
2018-09-29T13:27:21.620Z,3192
2018-09-29T13:28:22.973Z,3116
2018-09-29T13:29:22.939Z,2996
2018-09-29T13:30:24.334Z,3076
2018-09-29T13:31:25.405Z,3232
2018-09-29T13:32:26.480Z,3060
2018-09-29T13:33:26.557Z,2724
2018-09-29T13:34:28.353Z,2432
2018-09-29T13:35:28.427Z,2200
2018-09-29T13:36:28.945Z,2156
2018-09-29T13:37:31.017Z,2340
2018-09-29T13:38:31.531Z,2708
2018-09-29T13:39:33.071Z,5792
2018-09-29T13:40:34.145Z,4540
2018-09-29T13:41:33.664Z,5272
2018-09-29T13:42:34.733Z,6340
2018-09-29T13:43:35.527Z,6500
2018-09-29T13:44:36.321Z,6484
2018-09-29T13:45:38.113Z,6468
2018-09-29T13:46:38.910Z,6516
2018-09-29T13:47:39.708Z,6772
2018-09-29T13:48:40.502Z,6856
2018-09-29T13:49:41.050Z,6796
2018-09-29T13:50:42.397Z,6928
2018-09-29T13:51:43.195Z,6936
2018-09-29T13:52:43.546Z,7036
2018-09-29T13:53:45.303Z,7056
2018-09-29T13:54:45.476Z,6980
2018-09-29T13:55:45.991Z,7016
2018-09-29T13:56:47.064Z,6972
2018-09-29T13:57:47.581Z,7004
2018-09-29T13:58:48.373Z,6896
2018-09-29T13:59:50.202Z,6768
2018-09-29T14:00:51.267Z,6888
2018-09-29T14:01:52.061Z,6924
2018-09-29T14:02:55.331Z,6956
2018-09-29T14:03:54.848Z,6940
2018-09-29T14:04:55.368Z,6072
2018-09-29T14:05:56.726Z,5216